sensor_id;sensor_type;location;lat;lon;timestamp;temperature;humidity
65985;HTU21D;52748;51.112;5.880;2023-07-16T00:01:45;26.71;70.26
65985;HTU21D;52748;51.112;5.880;2023-07-16T00:04:11;26.70;70.26
65985;HTU21D;52748;51.112;5.880;2023-07-16T00:06:37;26.70;70.13
65985;HTU21D;52748;51.112;5.880;2023-07-16T00:09:03;26.68;69.94
65985;HTU21D;52748;51.112;5.880;2023-07-16T00:11:28;26.70;69.89
65985;HTU21D;52748;51.112;5.880;2023-07-16T00:13:54;26.70;69.72
65985;HTU21D;52748;51.112;5.880;2023-07-16T00:16:21;26.70;69.67
65985;HTU21D;52748;51.112;5.880;2023-07-16T00:18:47;26.70;69.46
65985;HTU21D;52748;51.112;5.880;2023-07-16T00:21:13;26.70;69.27
65985;HTU21D;52748;51.112;5.880;2023-07-16T00:23:39;26.69;69.33
65985;HTU21D;52748;51.112;5.880;2023-07-16T00:26:05;26.68;69.17
65985;HTU21D;52748;51.112;5.880;2023-07-16T00:28:30;26.68;69.13
65985;HTU21D;52748;51.112;5.880;2023-07-16T00:30:56;26.67;69.15
65985;HTU21D;52748;51.112;5.880;2023-07-16T00:33:22;26.66;68.92
65985;HTU21D;52748;51.112;5.880;2023-07-16T00:35:49;26.67;68.75
65985;HTU21D;52748;51.112;5.880;2023-07-16T00:38:17;26.66;68.62
65985;HTU21D;52748;51.112;5.880;2023-07-16T00:40:45;26.65;68.28
65985;HTU21D;52748;51.112;5.880;2023-07-16T00:43:11;26.64;68.12
65985;HTU21D;52748;51.112;5.880;2023-07-16T00:45:38;26.63;68.00
65985;HTU21D;52748;51.112;5.880;2023-07-16T00:48:06;26.63;67.65
65985;HTU21D;52748;51.112;5.880;2023-07-16T00:50:36;26.61;67.43
65985;HTU21D;52748;51.112;5.880;2023-07-16T00:53:09;26.61;67.11
65985;HTU21D;52748;51.112;5.880;2023-07-16T00:55:38;26.60;66.79
65985;HTU21D;52748;51.112;5.880;2023-07-16T00:58:06;26.58;66.47
65985;HTU21D;52748;51.112;5.880;2023-07-16T01:00:34;26.56;66.10
65985;HTU21D;52748;51.112;5.880;2023-07-16T01:03:06;26.55;65.88
65985;HTU21D;52748;51.112;5.880;2023-07-16T01:06:00;26.53;65.56
65985;HTU21D;52748;51.112;5.880;2023-07-16T01:08:42;26.53;65.33
65985;HTU21D;52748;51.112;5.880;2023-07-16T01:11:11;26.52;65.14
65985;HTU21D;52748;51.112;5.880;2023-07-16T01:13:38;26.51;64.95
65985;HTU21D;52748;51.112;5.880;2023-07-16T01:16:05;26.49;64.79
65985;HTU21D;52748;51.112;5.880;2023-07-16T01:18:31;26.48;64.74
65985;HTU21D;52748;51.112;5.880;2023-07-16T01:20:56;26.48;64.59
65985;HTU21D;52748;51.112;5.880;2023-07-16T01:23:37;26.48;64.37
65985;HTU21D;52748;51.112;5.880;2023-07-16T01:31:20;26.43;64.05
65985;HTU21D;52748;51.112;5.880;2023-07-16T01:33:50;26.42;63.92
65985;HTU21D;52748;51.112;5.880;2023-07-16T01:36:18;26.41;63.92
65985;HTU21D;52748;51.112;5.880;2023-07-16T01:38:44;26.41;63.82
65985;HTU21D;52748;51.112;5.880;2023-07-16T01:41:11;26.38;63.68
65985;HTU21D;52748;51.112;5.880;2023-07-16T01:43:36;26.39;63.69
65985;HTU21D;52748;51.112;5.880;2023-07-16T01:46:02;26.38;63.60
65985;HTU21D;52748;51.112;5.880;2023-07-16T01:48:38;26.37;63.46
65985;HTU21D;52748;51.112;5.880;2023-07-16T01:51:05;26.36;63.42
65985;HTU21D;52748;51.112;5.880;2023-07-16T01:53:31;26.36;63.40
65985;HTU21D;52748;51.112;5.880;2023-07-16T01:55:58;26.35;63.24
65985;HTU21D;52748;51.112;5.880;2023-07-16T01:58:24;26.35;63.17
65985;HTU21D;52748;51.112;5.880;2023-07-16T02:00:50;26.36;62.99
65985;HTU21D;52748;51.112;5.880;2023-07-16T02:03:16;26.33;63.03
65985;HTU21D;52748;51.112;5.880;2023-07-16T02:05:42;26.33;62.95
65985;HTU21D;52748;51.112;5.880;2023-07-16T02:08:09;26.32;62.91
65985;HTU21D;52748;51.112;5.880;2023-07-16T02:10:35;26.32;62.79
65985;HTU21D;52748;51.112;5.880;2023-07-16T02:13:01;26.31;62.73
65985;HTU21D;52748;51.112;5.880;2023-07-16T02:15:27;26.30;62.70
65985;HTU21D;52748;51.112;5.880;2023-07-16T02:17:53;26.31;62.50
65985;HTU21D;52748;51.112;5.880;2023-07-16T02:20:19;26.30;62.47
65985;HTU21D;52748;51.112;5.880;2023-07-16T02:22:45;26.27;62.44
65985;HTU21D;52748;51.112;5.880;2023-07-16T02:25:11;26.28;62.44
65985;HTU21D;52748;51.112;5.880;2023-07-16T02:27:38;26.27;62.34
65985;HTU21D;52748;51.112;5.880;2023-07-16T02:30:05;26.26;62.17
65985;HTU21D;52748;51.112;5.880;2023-07-16T02:32:33;26.25;62.01
65985;HTU21D;52748;51.112;5.880;2023-07-16T02:35:01;26.26;61.74
65985;HTU21D;52748;51.112;5.880;2023-07-16T02:37:27;26.25;61.46
65985;HTU21D;52748;51.112;5.880;2023-07-16T02:39:53;26.25;61.21
65985;HTU21D;52748;51.112;5.880;2023-07-16T02:42:19;26.26;61.03
65985;HTU21D;52748;51.112;5.880;2023-07-16T02:44:45;26.27;60.77
65985;HTU21D;52748;51.112;5.880;2023-07-16T02:47:11;26.27;60.53
65985;HTU21D;52748;51.112;5.880;2023-07-16T02:49:38;26.28;60.07
65985;HTU21D;52748;51.112;5.880;2023-07-16T02:52:05;26.27;59.76
65985;HTU21D;52748;51.112;5.880;2023-07-16T02:54:31;26.27;59.50
65985;HTU21D;52748;51.112;5.880;2023-07-16T02:56:58;26.28;59.32
65985;HTU21D;52748;51.112;5.880;2023-07-16T02:59:24;26.28;59.19
65985;HTU21D;52748;51.112;5.880;2023-07-16T03:01:50;26.31;58.97
65985;HTU21D;52748;51.112;5.880;2023-07-16T03:04:16;26.28;58.74
65985;HTU21D;52748;51.112;5.880;2023-07-16T03:06:42;26.31;58.62
65985;HTU21D;52748;51.112;5.880;2023-07-16T03:09:08;26.31;58.45
65985;HTU21D;52748;51.112;5.880;2023-07-16T03:11:34;26.30;58.41
65985;HTU21D;52748;51.112;5.880;2023-07-16T03:14:00;26.31;58.16
65985;HTU21D;52748;51.112;5.880;2023-07-16T03:16:26;26.28;57.96
65985;HTU21D;52748;51.112;5.880;2023-07-16T03:18:53;26.30;57.69
65985;HTU21D;52748;51.112;5.880;2023-07-16T03:21:19;26.28;57.39
65985;HTU21D;52748;51.112;5.880;2023-07-16T03:23:45;26.28;57.10
65985;HTU21D;52748;51.112;5.880;2023-07-16T03:26:10;26.27;56.75
65985;HTU21D;52748;51.112;5.880;2023-07-16T03:28:36;26.28;56.47
65985;HTU21D;52748;51.112;5.880;2023-07-16T03:31:05;26.26;56.29
65985;HTU21D;52748;51.112;5.880;2023-07-16T03:33:33;26.28;56.00
65985;HTU21D;52748;51.112;5.880;2023-07-16T03:35:59;26.27;55.82
65985;HTU21D;52748;51.112;5.880;2023-07-16T03:38:24;26.27;55.76
65985;HTU21D;52748;51.112;5.880;2023-07-16T03:40:51;26.27;55.60
65985;HTU21D;52748;51.112;5.880;2023-07-16T03:43:17;26.27;55.52
65985;HTU21D;52748;51.112;5.880;2023-07-16T03:45:44;26.27;55.55
65985;HTU21D;52748;51.112;5.880;2023-07-16T03:48:10;26.26;55.45
65985;HTU21D;52748;51.112;5.880;2023-07-16T03:50:36;26.24;55.29
65985;HTU21D;52748;51.112;5.880;2023-07-16T03:53:02;26.25;55.20
65985;HTU21D;52748;51.112;5.880;2023-07-16T03:55:29;26.24;55.05
65985;HTU21D;52748;51.112;5.880;2023-07-16T03:57:56;26.23;54.83
65985;HTU21D;52748;51.112;5.880;2023-07-16T04:00:22;26.26;54.46
65985;HTU21D;52748;51.112;5.880;2023-07-16T04:02:50;26.24;54.28
65985;HTU21D;52748;51.112;5.880;2023-07-16T04:05:18;26.22;54.07
65985;HTU21D;52748;51.112;5.880;2023-07-16T04:07:44;26.22;53.89
65985;HTU21D;52748;51.112;5.880;2023-07-16T04:10:10;26.20;53.75
65985;HTU21D;52748;51.112;5.880;2023-07-16T04:12:36;26.21;53.65
65985;HTU21D;52748;51.112;5.880;2023-07-16T04:15:07;26.21;53.52
65985;HTU21D;52748;51.112;5.880;2023-07-16T04:17:34;26.22;53.36
65985;HTU21D;52748;51.112;5.880;2023-07-16T04:20:00;26.21;53.27
65985;HTU21D;52748;51.112;5.880;2023-07-16T04:22:26;26.20;53.23
65985;HTU21D;52748;51.112;5.880;2023-07-16T04:24:52;26.20;53.23
65985;HTU21D;52748;51.112;5.880;2023-07-16T04:27:17;26.19;53.21
65985;HTU21D;52748;51.112;5.880;2023-07-16T04:29:44;26.21;53.11
65985;HTU21D;52748;51.112;5.880;2023-07-16T04:32:09;26.19;52.96
65985;HTU21D;52748;51.112;5.880;2023-07-16T04:34:35;26.19;52.85
65985;HTU21D;52748;51.112;5.880;2023-07-16T04:37:01;26.19;52.84
65985;HTU21D;52748;51.112;5.880;2023-07-16T04:39:27;26.19;52.77
65985;HTU21D;52748;51.112;5.880;2023-07-16T04:41:53;26.18;52.62
65985;HTU21D;52748;51.112;5.880;2023-07-16T04:44:19;26.17;52.65
65985;HTU21D;52748;51.112;5.880;2023-07-16T04:46:45;26.18;52.56
65985;HTU21D;52748;51.112;5.880;2023-07-16T04:49:10;26.18;52.40
65985;HTU21D;52748;51.112;5.880;2023-07-16T04:51:36;26.17;52.35
65985;HTU21D;52748;51.112;5.880;2023-07-16T04:54:05;26.17;52.23
65985;HTU21D;52748;51.112;5.880;2023-07-16T04:56:31;26.15;52.24
65985;HTU21D;52748;51.112;5.880;2023-07-16T04:58:57;26.17;52.07
65985;HTU21D;52748;51.112;5.880;2023-07-16T05:01:22;26.16;51.97
65985;HTU21D;52748;51.112;5.880;2023-07-16T05:03:48;26.15;51.78
65985;HTU21D;52748;51.112;5.880;2023-07-16T05:06:14;26.15;51.62
65985;HTU21D;52748;51.112;5.880;2023-07-16T05:08:40;26.12;51.48
65985;HTU21D;52748;51.112;5.880;2023-07-16T05:11:06;26.13;51.44
65985;HTU21D;52748;51.112;5.880;2023-07-16T05:13:32;26.13;51.37
65985;HTU21D;52748;51.112;5.880;2023-07-16T05:15:58;26.12;51.30
65985;HTU21D;52748;51.112;5.880;2023-07-16T05:18:23;26.12;51.21
65985;HTU21D;52748;51.112;5.880;2023-07-16T05:20:49;26.13;51.08
65985;HTU21D;52748;51.112;5.880;2023-07-16T05:23:15;26.15;50.92
65985;HTU21D;52748;51.112;5.880;2023-07-16T05:25:48;26.13;50.72
65985;HTU21D;52748;51.112;5.880;2023-07-16T05:28:15;26.11;50.63
65985;HTU21D;52748;51.112;5.880;2023-07-16T05:30:41;26.12;50.63
65985;HTU21D;52748;51.112;5.880;2023-07-16T05:33:07;26.12;50.37
65985;HTU21D;52748;51.112;5.880;2023-07-16T05:35:33;26.12;50.21
65985;HTU21D;52748;51.112;5.880;2023-07-16T05:37:58;26.10;50.05
65985;HTU21D;52748;51.112;5.880;2023-07-16T05:40:24;26.11;49.92
65985;HTU21D;52748;51.112;5.880;2023-07-16T05:42:50;26.10;49.76
65985;HTU21D;52748;51.112;5.880;2023-07-16T05:45:16;26.11;49.67
65985;HTU21D;52748;51.112;5.880;2023-07-16T05:47:42;26.12;49.55
65985;HTU21D;52748;51.112;5.880;2023-07-16T05:50:08;26.15;49.71
65985;HTU21D;52748;51.112;5.880;2023-07-16T05:52:34;26.15;49.64
65985;HTU21D;52748;51.112;5.880;2023-07-16T05:54:59;26.18;49.47
65985;HTU21D;52748;51.112;5.880;2023-07-16T05:57:25;26.19;49.39
65985;HTU21D;52748;51.112;5.880;2023-07-16T05:59:51;26.23;49.15
65985;HTU21D;52748;51.112;5.880;2023-07-16T06:02:17;26.20;49.08
65985;HTU21D;52748;51.112;5.880;2023-07-16T06:04:43;26.19;48.79
65985;HTU21D;52748;51.112;5.880;2023-07-16T06:07:08;26.18;48.63
65985;HTU21D;52748;51.112;5.880;2023-07-16T06:09:34;26.19;48.57
65985;HTU21D;52748;51.112;5.880;2023-07-16T06:12:00;26.19;48.45
65985;HTU21D;52748;51.112;5.880;2023-07-16T06:14:26;26.18;48.24
65985;HTU21D;52748;51.112;5.880;2023-07-16T06:16:52;26.19;48.28
65985;HTU21D;52748;51.112;5.880;2023-07-16T06:19:18;26.20;48.15
65985;HTU21D;52748;51.112;5.880;2023-07-16T06:21:44;26.21;48.23
65985;HTU21D;52748;51.112;5.880;2023-07-16T06:24:09;26.23;48.43
65985;HTU21D;52748;51.112;5.880;2023-07-16T06:26:35;26.26;48.34
65985;HTU21D;52748;51.112;5.880;2023-07-16T06:29:02;26.26;48.37
65985;HTU21D;52748;51.112;5.880;2023-07-16T06:31:27;26.30;48.52
65985;HTU21D;52748;51.112;5.880;2023-07-16T06:33:53;26.32;48.70
65985;HTU21D;52748;51.112;5.880;2023-07-16T06:36:19;26.35;48.59
65985;HTU21D;52748;51.112;5.880;2023-07-16T06:38:46;26.37;48.75
65985;HTU21D;52748;51.112;5.880;2023-07-16T06:41:12;26.38;48.59
65985;HTU21D;52748;51.112;5.880;2023-07-16T06:43:38;26.38;48.58
65985;HTU21D;52748;51.112;5.880;2023-07-16T06:46:04;26.40;48.29
65985;HTU21D;52748;51.112;5.880;2023-07-16T06:48:30;26.42;48.14
65985;HTU21D;52748;51.112;5.880;2023-07-16T06:50:55;26.42;48.12
65985;HTU21D;52748;51.112;5.880;2023-07-16T06:53:21;26.45;48.28
65985;HTU21D;52748;51.112;5.880;2023-07-16T06:55:48;26.45;48.32
65985;HTU21D;52748;51.112;5.880;2023-07-16T06:58:14;26.45;48.35
65985;HTU21D;52748;51.112;5.880;2023-07-16T07:00:40;26.46;48.41
65985;HTU21D;52748;51.112;5.880;2023-07-16T07:03:06;26.47;48.51
65985;HTU21D;52748;51.112;5.880;2023-07-16T07:05:32;26.48;48.37
65985;HTU21D;52748;51.112;5.880;2023-07-16T07:07:58;26.48;47.89
65985;HTU21D;52748;51.112;5.880;2023-07-16T07:10:24;26.49;47.57
65985;HTU21D;52748;51.112;5.880;2023-07-16T07:12:49;26.48;47.49
65985;HTU21D;52748;51.112;5.880;2023-07-16T07:15:15;26.48;47.53
65985;HTU21D;52748;51.112;5.880;2023-07-16T07:17:41;26.48;47.70
65985;HTU21D;52748;51.112;5.880;2023-07-16T07:20:08;26.48;47.63
65985;HTU21D;52748;51.112;5.880;2023-07-16T07:22:34;26.48;47.46
65985;HTU21D;52748;51.112;5.880;2023-07-16T07:25:00;26.50;47.35
65985;HTU21D;52748;51.112;5.880;2023-07-16T07:27:26;26.48;47.04
65985;HTU21D;52748;51.112;5.880;2023-07-16T07:29:52;26.48;46.78
65985;HTU21D;52748;51.112;5.880;2023-07-16T07:32:19;26.49;46.47
65985;HTU21D;52748;51.112;5.880;2023-07-16T07:34:46;26.46;46.21
65985;HTU21D;52748;51.112;5.880;2023-07-16T07:37:12;26.41;46.26
65985;HTU21D;52748;51.112;5.880;2023-07-16T07:39:37;26.33;46.11
65985;HTU21D;52748;51.112;5.880;2023-07-16T07:42:04;26.20;45.96
65985;HTU21D;52748;51.112;5.880;2023-07-16T07:44:30;26.07;45.98
65985;HTU21D;52748;51.112;5.880;2023-07-16T07:46:55;25.92;45.95
65985;HTU21D;52748;51.112;5.880;2023-07-16T07:49:21;25.72;45.86
65985;HTU21D;52748;51.112;5.880;2023-07-16T07:51:47;25.50;46.38
65985;HTU21D;52748;51.112;5.880;2023-07-16T07:54:15;25.42;46.90
65985;HTU21D;52748;51.112;5.880;2023-07-16T07:56:42;25.34;46.95
65985;HTU21D;52748;51.112;5.880;2023-07-16T07:59:26;25.28;46.90
65985;HTU21D;52748;51.112;5.880;2023-07-16T08:01:52;25.19;46.96
65985;HTU21D;52748;51.112;5.880;2023-07-16T08:04:18;25.09;46.95
65985;HTU21D;52748;51.112;5.880;2023-07-16T08:07:02;24.88;47.60
65985;HTU21D;52748;51.112;5.880;2023-07-16T08:09:28;24.78;48.15
65985;HTU21D;52748;51.112;5.880;2023-07-16T08:11:54;24.71;48.55
65985;HTU21D;52748;51.112;5.880;2023-07-16T08:14:19;24.65;48.73
65985;HTU21D;52748;51.112;5.880;2023-07-16T08:16:45;24.62;48.60
65985;HTU21D;52748;51.112;5.880;2023-07-16T08:19:11;24.57;48.70
65985;HTU21D;52748;51.112;5.880;2023-07-16T08:21:37;24.51;48.79
65985;HTU21D;52748;51.112;5.880;2023-07-16T08:24:05;24.46;49.05
65985;HTU21D;52748;51.112;5.880;2023-07-16T08:26:31;24.49;49.27
65985;HTU21D;52748;51.112;5.880;2023-07-16T08:28:56;24.55;49.37
65985;HTU21D;52748;51.112;5.880;2023-07-16T08:31:22;24.58;49.39
65985;HTU21D;52748;51.112;5.880;2023-07-16T08:33:48;24.64;49.56
65985;HTU21D;52748;51.112;5.880;2023-07-16T08:36:14;24.79;49.35
65985;HTU21D;52748;51.112;5.880;2023-07-16T08:38:40;24.95;48.99
65985;HTU21D;52748;51.112;5.880;2023-07-16T08:41:06;25.13;48.68
65985;HTU21D;52748;51.112;5.880;2023-07-16T08:43:33;25.28;48.27
65985;HTU21D;52748;51.112;5.880;2023-07-16T08:46:01;25.37;47.96
65985;HTU21D;52748;51.112;5.880;2023-07-16T08:48:28;25.48;47.67
65985;HTU21D;52748;51.112;5.880;2023-07-16T08:50:55;25.59;47.52
65985;HTU21D;52748;51.112;5.880;2023-07-16T08:53:22;25.67;47.33
65985;HTU21D;52748;51.112;5.880;2023-07-16T08:55:48;25.76;47.20
65985;HTU21D;52748;51.112;5.880;2023-07-16T08:58:15;25.84;47.12
65985;HTU21D;52748;51.112;5.880;2023-07-16T09:00:44;25.91;47.06
65985;HTU21D;52748;51.112;5.880;2023-07-16T09:03:12;25.97;47.00
65985;HTU21D;52748;51.112;5.880;2023-07-16T09:05:39;26.04;46.95
65985;HTU21D;52748;51.112;5.880;2023-07-16T09:08:06;26.08;46.93
65985;HTU21D;52748;51.112;5.880;2023-07-16T09:10:32;26.11;46.88
65985;HTU21D;52748;51.112;5.880;2023-07-16T09:12:59;26.16;46.83
65985;HTU21D;52748;51.112;5.880;2023-07-16T09:15:28;26.20;46.78
65985;HTU21D;52748;51.112;5.880;2023-07-16T09:17:55;26.24;46.73
65985;HTU21D;52748;51.112;5.880;2023-07-16T09:20:21;26.27;46.69
65985;HTU21D;52748;51.112;5.880;2023-07-16T09:22:49;26.30;46.70
65985;HTU21D;52748;51.112;5.880;2023-07-16T09:25:16;26.32;46.71
65985;HTU21D;52748;51.112;5.880;2023-07-16T09:27:42;26.35;46.66
65985;HTU21D;52748;51.112;5.880;2023-07-16T09:30:15;26.37;46.61
65985;HTU21D;52748;51.112;5.880;2023-07-16T09:32:41;26.39;46.54
65985;HTU21D;52748;51.112;5.880;2023-07-16T09:35:14;26.41;46.57
65985;HTU21D;52748;51.112;5.880;2023-07-16T09:37:42;26.43;46.54
65985;HTU21D;52748;51.112;5.880;2023-07-16T09:40:10;26.46;46.60
65985;HTU21D;52748;51.112;5.880;2023-07-16T09:42:43;26.46;46.64
65985;HTU21D;52748;51.112;5.880;2023-07-16T09:45:19;26.48;46.62
65985;HTU21D;52748;51.112;5.880;2023-07-16T09:47:45;26.48;46.67
65985;HTU21D;52748;51.112;5.880;2023-07-16T09:50:11;26.50;46.67
65985;HTU21D;52748;51.112;5.880;2023-07-16T09:52:37;26.51;46.67
65985;HTU21D;52748;51.112;5.880;2023-07-16T09:55:08;26.52;46.64
65985;HTU21D;52748;51.112;5.880;2023-07-16T09:57:42;26.52;46.71
65985;HTU21D;52748;51.112;5.880;2023-07-16T10:00:13;26.57;46.62
65985;HTU21D;52748;51.112;5.880;2023-07-16T10:02:44;26.56;46.63
65985;HTU21D;52748;51.112;5.880;2023-07-16T10:05:18;26.56;46.64
65985;HTU21D;52748;51.112;5.880;2023-07-16T10:08:00;26.58;46.64
65985;HTU21D;52748;51.112;5.880;2023-07-16T10:10:52;26.56;46.71
65985;HTU21D;52748;51.112;5.880;2023-07-16T10:13:23;26.57;46.72
65985;HTU21D;52748;51.112;5.880;2023-07-16T10:15:57;26.60;46.68
65985;HTU21D;52748;51.112;5.880;2023-07-16T10:18:27;26.60;46.76
65985;HTU21D;52748;51.112;5.880;2023-07-16T10:20:54;26.60;46.80
65985;HTU21D;52748;51.112;5.880;2023-07-16T10:23:19;26.58;46.78
65985;HTU21D;52748;51.112;5.880;2023-07-16T10:26:02;26.60;46.80
65985;HTU21D;52748;51.112;5.880;2023-07-16T10:28:33;26.62;46.83
65985;HTU21D;52748;51.112;5.880;2023-07-16T10:30:59;26.64;46.82
65985;HTU21D;52748;51.112;5.880;2023-07-16T10:33:25;26.64;46.76
65985;HTU21D;52748;51.112;5.880;2023-07-16T10:35:51;26.64;46.74
65985;HTU21D;52748;51.112;5.880;2023-07-16T10:38:17;26.66;46.76
65985;HTU21D;52748;51.112;5.880;2023-07-16T10:40:44;26.67;46.71
65985;HTU21D;52748;51.112;5.880;2023-07-16T10:43:12;26.67;46.78
65985;HTU21D;52748;51.112;5.880;2023-07-16T10:45:38;26.68;46.70
65985;HTU21D;52748;51.112;5.880;2023-07-16T10:48:05;26.71;46.70
65985;HTU21D;52748;51.112;5.880;2023-07-16T10:50:35;26.69;46.64
65985;HTU21D;52748;51.112;5.880;2023-07-16T10:53:01;26.71;46.65
65985;HTU21D;52748;51.112;5.880;2023-07-16T10:55:28;26.71;46.59
65985;HTU21D;52748;51.112;5.880;2023-07-16T10:57:56;26.70;46.66
65985;HTU21D;52748;51.112;5.880;2023-07-16T11:00:22;26.71;46.63
65985;HTU21D;52748;51.112;5.880;2023-07-16T11:02:50;26.72;46.63
65985;HTU21D;52748;51.112;5.880;2023-07-16T11:05:17;26.73;46.66
65985;HTU21D;52748;51.112;5.880;2023-07-16T11:07:47;26.73;46.67
65985;HTU21D;52748;51.112;5.880;2023-07-16T11:10:17;26.73;46.63
65985;HTU21D;52748;51.112;5.880;2023-07-16T11:12:43;26.73;46.64
65985;HTU21D;52748;51.112;5.880;2023-07-16T11:15:10;26.73;46.62
65985;HTU21D;52748;51.112;5.880;2023-07-16T11:17:39;26.73;46.57
65985;HTU21D;52748;51.112;5.880;2023-07-16T11:20:08;26.75;46.57
65985;HTU21D;52748;51.112;5.880;2023-07-16T11:22:38;26.76;46.55
65985;HTU21D;52748;51.112;5.880;2023-07-16T11:25:10;26.75;46.64
65985;HTU21D;52748;51.112;5.880;2023-07-16T11:27:36;26.78;46.65
65985;HTU21D;52748;51.112;5.880;2023-07-16T11:30:02;26.78;46.64
65985;HTU21D;52748;51.112;5.880;2023-07-16T11:32:42;26.78;46.65
65985;HTU21D;52748;51.112;5.880;2023-07-16T11:35:10;26.80;46.63
65985;HTU21D;52748;51.112;5.880;2023-07-16T11:37:36;26.80;46.57
65985;HTU21D;52748;51.112;5.880;2023-07-16T11:40:07;26.80;45.88
65985;HTU21D;52748;51.112;5.880;2023-07-16T11:42:36;26.80;45.36
65985;HTU21D;52748;51.112;5.880;2023-07-16T11:45:03;26.80;44.74
65985;HTU21D;52748;51.112;5.880;2023-07-16T11:47:32;26.76;44.71
65985;HTU21D;52748;51.112;5.880;2023-07-16T11:49:58;26.76;44.53
65985;HTU21D;52748;51.112;5.880;2023-07-16T11:52:29;26.76;44.25
65985;HTU21D;52748;51.112;5.880;2023-07-16T11:54:57;26.75;44.03
65985;HTU21D;52748;51.112;5.880;2023-07-16T11:57:27;26.73;43.96
65985;HTU21D;52748;51.112;5.880;2023-07-16T11:59:53;26.73;43.98
65985;HTU21D;52748;51.112;5.880;2023-07-16T12:02:20;26.72;43.97
65985;HTU21D;52748;51.112;5.880;2023-07-16T12:04:47;26.73;43.96
65985;HTU21D;52748;51.112;5.880;2023-07-16T12:07:13;26.75;44.13
65985;HTU21D;52748;51.112;5.880;2023-07-16T12:09:39;26.75;43.70
65985;HTU21D;52748;51.112;5.880;2023-07-16T12:12:05;26.76;43.65
65985;HTU21D;52748;51.112;5.880;2023-07-16T12:14:32;26.77;43.35
65985;HTU21D;52748;51.112;5.880;2023-07-16T12:17:05;26.77;43.32
65985;HTU21D;52748;51.112;5.880;2023-07-16T12:19:32;26.77;43.30
65985;HTU21D;52748;51.112;5.880;2023-07-16T12:21:59;26.77;43.07
65985;HTU21D;52748;51.112;5.880;2023-07-16T12:24:25;26.78;42.76
65985;HTU21D;52748;51.112;5.880;2023-07-16T12:26:50;26.77;42.74
65985;HTU21D;52748;51.112;5.880;2023-07-16T12:29:16;26.77;42.77
65985;HTU21D;52748;51.112;5.880;2023-07-16T12:31:42;26.78;43.32
65985;HTU21D;52748;51.112;5.880;2023-07-16T12:34:08;26.78;42.90
65985;HTU21D;52748;51.112;5.880;2023-07-16T12:36:34;26.79;43.03
65985;HTU21D;52748;51.112;5.880;2023-07-16T12:39:00;26.79;42.48
65985;HTU21D;52748;51.112;5.880;2023-07-16T12:41:26;26.81;42.41
65985;HTU21D;52748;51.112;5.880;2023-07-16T12:43:52;26.83;43.19
65985;HTU21D;52748;51.112;5.880;2023-07-16T12:46:17;26.83;42.62
65985;HTU21D;52748;51.112;5.880;2023-07-16T12:48:43;26.84;42.34
65985;HTU21D;52748;51.112;5.880;2023-07-16T12:51:09;26.86;42.65
65985;HTU21D;52748;51.112;5.880;2023-07-16T12:53:35;26.86;42.93
65985;HTU21D;52748;51.112;5.880;2023-07-16T12:56:03;26.87;43.30
65985;HTU21D;52748;51.112;5.880;2023-07-16T12:58:29;26.91;44.10
65985;HTU21D;52748;51.112;5.880;2023-07-16T13:00:55;26.92;44.48
65985;HTU21D;52748;51.112;5.880;2023-07-16T13:03:24;26.93;44.19
65985;HTU21D;52748;51.112;5.880;2023-07-16T13:05:50;26.95;44.21
65985;HTU21D;52748;51.112;5.880;2023-07-16T13:08:18;26.96;44.27
65985;HTU21D;52748;51.112;5.880;2023-07-16T13:10:44;26.95;43.71
65985;HTU21D;52748;51.112;5.880;2023-07-16T13:13:10;26.97;43.51
65985;HTU21D;52748;51.112;5.880;2023-07-16T13:15:38;26.98;43.58
65985;HTU21D;52748;51.112;5.880;2023-07-16T13:18:04;26.99;43.77
65985;HTU21D;52748;51.112;5.880;2023-07-16T13:20:30;26.99;44.15
65985;HTU21D;52748;51.112;5.880;2023-07-16T13:22:56;27.00;44.60
65985;HTU21D;52748;51.112;5.880;2023-07-16T13:25:23;27.00;44.99
65985;HTU21D;52748;51.112;5.880;2023-07-16T13:27:49;27.02;45.28
65985;HTU21D;52748;51.112;5.880;2023-07-16T13:30:15;27.01;45.49
65985;HTU21D;52748;51.112;5.880;2023-07-16T13:32:40;27.01;45.73
65985;HTU21D;52748;51.112;5.880;2023-07-16T13:35:06;27.01;45.94
65985;HTU21D;52748;51.112;5.880;2023-07-16T13:37:32;27.01;46.06
65985;HTU21D;52748;51.112;5.880;2023-07-16T13:39:59;27.01;46.18
65985;HTU21D;52748;51.112;5.880;2023-07-16T13:42:25;27.00;46.28
65985;HTU21D;52748;51.112;5.880;2023-07-16T13:44:51;27.00;46.41
65985;HTU21D;52748;51.112;5.880;2023-07-16T13:47:16;27.00;46.50
65985;HTU21D;52748;51.112;5.880;2023-07-16T13:49:42;27.01;46.57
65985;HTU21D;52748;51.112;5.880;2023-07-16T13:52:08;27.01;46.66
65985;HTU21D;52748;51.112;5.880;2023-07-16T13:54:34;27.01;46.73
65985;HTU21D;52748;51.112;5.880;2023-07-16T13:57:03;27.00;46.82
65985;HTU21D;52748;51.112;5.880;2023-07-16T13:59:32;27.05;46.83
65985;HTU21D;52748;51.112;5.880;2023-07-16T14:02:02;27.02;46.91
65985;HTU21D;52748;51.112;5.880;2023-07-16T14:04:29;27.01;46.99
65985;HTU21D;52748;51.112;5.880;2023-07-16T14:06:55;27.04;47.00
65985;HTU21D;52748;51.112;5.880;2023-07-16T14:09:23;27.04;47.02
65985;HTU21D;52748;51.112;5.880;2023-07-16T14:11:48;27.01;47.06
65985;HTU21D;52748;51.112;5.880;2023-07-16T14:14:18;27.05;47.11
65985;HTU21D;52748;51.112;5.880;2023-07-16T14:16:44;27.02;47.15
65985;HTU21D;52748;51.112;5.880;2023-07-16T14:19:10;27.04;47.19
65985;HTU21D;52748;51.112;5.880;2023-07-16T14:21:38;27.02;47.29
65985;HTU21D;52748;51.112;5.880;2023-07-16T14:24:05;27.01;47.37
65985;HTU21D;52748;51.112;5.880;2023-07-16T14:26:30;27.02;47.43
65985;HTU21D;52748;51.112;5.880;2023-07-16T14:28:56;27.02;47.46
65985;HTU21D;52748;51.112;5.880;2023-07-16T14:31:22;27.02;47.47
65985;HTU21D;52748;51.112;5.880;2023-07-16T14:33:48;27.02;47.51
65985;HTU21D;52748;51.112;5.880;2023-07-16T14:36:14;27.04;47.52
65985;HTU21D;52748;51.112;5.880;2023-07-16T14:38:40;27.02;47.57
65985;HTU21D;52748;51.112;5.880;2023-07-16T14:41:06;27.02;47.55
65985;HTU21D;52748;51.112;5.880;2023-07-16T14:43:33;27.04;47.54
65985;HTU21D;52748;51.112;5.880;2023-07-16T14:45:59;27.04;47.55
65985;HTU21D;52748;51.112;5.880;2023-07-16T14:48:25;27.05;47.61
65985;HTU21D;52748;51.112;5.880;2023-07-16T14:50:53;27.02;47.67
65985;HTU21D;52748;51.112;5.880;2023-07-16T14:53:19;27.02;47.71
65985;HTU21D;52748;51.112;5.880;2023-07-16T14:55:52;27.04;47.73
65985;HTU21D;52748;51.112;5.880;2023-07-16T14:58:19;27.02;47.75
65985;HTU21D;52748;51.112;5.880;2023-07-16T15:00:46;27.04;47.79
65985;HTU21D;52748;51.112;5.880;2023-07-16T15:03:12;27.02;47.79
65985;HTU21D;52748;51.112;5.880;2023-07-16T15:05:39;27.04;47.75
65985;HTU21D;52748;51.112;5.880;2023-07-16T15:08:06;27.02;47.78
65985;HTU21D;52748;51.112;5.880;2023-07-16T15:10:34;27.02;47.81
65985;HTU21D;52748;51.112;5.880;2023-07-16T15:13:00;27.02;47.79
65985;HTU21D;52748;51.112;5.880;2023-07-16T15:15:26;27.04;47.76
65985;HTU21D;52748;51.112;5.880;2023-07-16T15:17:52;27.05;47.76
65985;HTU21D;52748;51.112;5.880;2023-07-16T15:20:17;27.04;47.79